University of Illinois Willard Airport
KCMI : now visible

Airfield :











YOU CAN JOIN US ON...

 
LOGIN :

Register | Disclaimer

   EN    FR    IT 

 









Legend :    VFR   Marginal VFR   IFR   Intensive IFR   Very Intensive IFR
Visi :
Ceiling :
>= 8 km
>= 3000ft
5 to 8 km
1000 to 3000 ft
1500m to 5 km
500 to 1000 ft
800 to 1500m
200 to 500 ft
< 800m
< 200 ft
Symbols :   Thunderstorms  Fog  Heavy snow  Heavy precipitations  Wind > 20 kt






- Airport Elevation : 755 ft
- IATA code : CMI


KCMI - University of Illinois Willard

CURRENT METAR :
  • 250453Z AUTO 05014KT 10SM FEW065 OVC085 06/02 A3014 RMK AO2 SLP209 T00610022

EXPIRED METARs :
  • 250353Z AUTO 05012KT 10SM OVC085 06/02 A3016 RMK AO2 SLP216 T00610022
  • 250253Z AUTO 04012KT 10SM OVC085 06/03 A3015 RMK AO2 SLP215 T00610028 56005
  • 250153Z AUTO 03014KT 10SM OVC085 07/03 A3016 RMK AO2 SLP216 T00670028

TAF KCMI
Valid from the 25 at 00:00 until the 26 at 00:00 UTC


242320Z 2500/2524 04008KT P6SM SCT040 BKN090
FM251800 06010KT P6SM BKN040
KZAU FIR / North America



MET'MAP, your aeronautical weather chart ! - Copyright ORBIFLY December 2007 - Disclaimer

ORBIFLY MET'MAP TEAM :

Programming & Development : Alexandra Zaïnal
Concept & original design : Baudouin d'Aumeries
Assistance for programming : Marc-Olivier Méhu
Technical & hardware support : Manuel Goepfert

Contact : metmap@orbifly.com




SOURCES & CREDITS :

   NOAA       Earth
Advisory